sensor_id;sensor_type;location;lat;lon;timestamp;pressure;altitude;pressure_sealevel;temperature;humidity
50349;BME280;36250;48.740;22.174;2022-11-28T00:00:22;101292.88;;;2.10;100.00
50349;BME280;36250;48.740;22.174;2022-11-28T00:02:48;101292.66;;;2.13;100.00
50349;BME280;36250;48.740;22.174;2022-11-28T00:05:13;101299.31;;;2.17;100.00
50349;BME280;36250;48.740;22.174;2022-11-28T00:07:38;101295.53;;;2.22;100.00
50349;BME280;36250;48.740;22.174;2022-11-28T00:10:04;101296.19;;;2.25;100.00
50349;BME280;36250;48.740;22.174;2022-11-28T00:12:33;101291.84;;;2.24;100.00
50349;BME280;36250;48.740;22.174;2022-11-28T00:14:58;101291.13;;;2.22;100.00
50349;BME280;36250;48.740;22.174;2022-11-28T00:17:23;101292.72;;;2.25;100.00
50349;BME280;36250;48.740;22.174;2022-11-28T00:19:49;101294.28;;;2.27;100.00
50349;BME280;36250;48.740;22.174;2022-11-28T00:22:14;101296.69;;;2.30;100.00
50349;BME280;36250;48.740;22.174;2022-11-28T00:24:39;101293.94;;;2.32;100.00
50349;BME280;36250;48.740;22.174;2022-11-28T00:27:05;101296.47;;;2.34;100.00
50349;BME280;36250;48.740;22.174;2022-11-28T00:29:30;101298.94;;;2.35;100.00
50349;BME280;36250;48.740;22.174;2022-11-28T00:31:55;101291.22;;;2.34;100.00
50349;BME280;36250;48.740;22.174;2022-11-28T00:34:20;101287.53;;;2.36;100.00
50349;BME280;36250;48.740;22.174;2022-11-28T00:36:46;101284.94;;;2.36;100.00
50349;BME280;36250;48.740;22.174;2022-11-28T00:39:13;101290.06;;;2.38;100.00
50349;BME280;36250;48.740;22.174;2022-11-28T00:41:38;101289.00;;;2.40;100.00
50349;BME280;36250;48.740;22.174;2022-11-28T00:44:04;101282.59;;;2.44;100.00
50349;BME280;36250;48.740;22.174;2022-11-28T00:46:29;101289.72;;;2.42;100.00
50349;BME280;36250;48.740;22.174;2022-11-28T00:48:56;101282.22;;;2.38;100.00
50349;BME280;36250;48.740;22.174;2022-11-28T00:51:24;101291.50;;;2.42;100.00
50349;BME280;36250;48.740;22.174;2022-11-28T00:53:52;101286.38;;;2.40;100.00
50349;BME280;36250;48.740;22.174;2022-11-28T00:56:20;101275.91;;;2.40;100.00
50349;BME280;36250;48.740;22.174;2022-11-28T00:58:46;101270.81;;;2.39;100.00
50349;BME280;36250;48.740;22.174;2022-11-28T01:01:29;101275.91;;;2.40;100.00
50349;BME280;36250;48.740;22.174;2022-11-28T01:03:58;101272.47;;;2.40;100.00
50349;BME280;36250;48.740;22.174;2022-11-28T01:06:28;101269.88;;;2.40;100.00
50349;BME280;36250;48.740;22.174;2022-11-28T01:08:55;101274.75;;;2.44;100.00
50349;BME280;36250;48.740;22.174;2022-11-28T01:11:22;101264.41;;;2.43;100.00
50349;BME280;36250;48.740;22.174;2022-11-28T01:13:47;101263.22;;;2.47;100.00
50349;BME280;36250;48.740;22.174;2022-11-28T01:16:13;101254.56;;;2.46;100.00
50349;BME280;36250;48.740;22.174;2022-11-28T01:18:39;101255.72;;;2.42;100.00
50349;BME280;36250;48.740;22.174;2022-11-28T01:21:05;101248.72;;;2.43;100.00
50349;BME280;36250;48.740;22.174;2022-11-28T01:23:31;101245.16;;;2.44;100.00
50349;BME280;36250;48.740;22.174;2022-11-28T01:25:56;101243.34;;;2.44;100.00
50349;BME280;36250;48.740;22.174;2022-11-28T01:28:22;101240.75;;;2.44;100.00
50349;BME280;36250;48.740;22.174;2022-11-28T01:30:47;101241.69;;;2.43;100.00
50349;BME280;36250;48.740;22.174;2022-11-28T01:33:12;101243.25;;;2.46;100.00
50349;BME280;36250;48.740;22.174;2022-11-28T01:35:38;101238.88;;;2.46;100.00
50349;BME280;36250;48.740;22.174;2022-11-28T01:38:03;101238.13;;;2.44;100.00
50349;BME280;36250;48.740;22.174;2022-11-28T01:40:28;101236.38;;;2.45;100.00
50349;BME280;36250;48.740;22.174;2022-11-28T01:42:54;101244.94;;;2.47;100.00
50349;BME280;36250;48.740;22.174;2022-11-28T01:45:25;101246.59;;;2.48;100.00
50349;BME280;36250;48.740;22.174;2022-11-28T01:47:52;101249.94;;;2.50;100.00
50349;BME280;36250;48.740;22.174;2022-11-28T01:50:21;101242.81;;;2.52;100.00
50349;BME280;36250;48.740;22.174;2022-11-28T01:52:51;101233.19;;;2.53;100.00
50349;BME280;36250;48.740;22.174;2022-11-28T01:55:20;101240.19;;;2.52;100.00
50349;BME280;36250;48.740;22.174;2022-11-28T01:57:46;101239.16;;;2.55;100.00
50349;BME280;36250;48.740;22.174;2022-11-28T02:00:17;101239.03;;;2.56;100.00
50349;BME280;36250;48.740;22.174;2022-11-28T02:05:11;101237.34;;;2.55;100.00
50349;BME280;36250;48.740;22.174;2022-11-28T02:07:36;101227.84;;;2.54;100.00
50349;BME280;36250;48.740;22.174;2022-11-28T02:10:05;101223.44;;;2.55;100.00
50349;BME280;36250;48.740;22.174;2022-11-28T02:13:12;101227.75;;;2.56;100.00
50349;BME280;36250;48.740;22.174;2022-11-28T02:15:57;101226.88;;;2.55;100.00
50349;BME280;36250;48.740;22.174;2022-11-28T02:21:32;101223.56;;;2.53;100.00
50349;BME280;36250;48.740;22.174;2022-11-28T02:27:06;101224.34;;;2.42;100.00
50349;BME280;36250;48.740;22.174;2022-11-28T02:32:14;101216.50;;;2.42;100.00
50349;BME280;36250;48.740;22.174;2022-11-28T02:35:04;101217.09;;;2.46;100.00
50349;BME280;36250;48.740;22.174;2022-11-28T02:37:36;101217.09;;;2.46;100.00
50349;BME280;36250;48.740;22.174;2022-11-28T02:42:52;101223.03;;;2.37;100.00
50349;BME280;36250;48.740;22.174;2022-11-28T02:45:45;101218.25;;;2.30;100.00
50349;BME280;36250;48.740;22.174;2022-11-28T02:48:17;101214.19;;;2.26;100.00
50349;BME280;36250;48.740;22.174;2022-11-28T02:51:05;101218.78;;;2.23;100.00
50349;BME280;36250;48.740;22.174;2022-11-28T02:53:34;101217.94;;;2.22;100.00
50349;BME280;36250;48.740;22.174;2022-11-28T02:56:01;101216.16;;;2.23;100.00
50349;BME280;36250;48.740;22.174;2022-11-28T02:58:27;101212.63;;;2.24;100.00
50349;BME280;36250;48.740;22.174;2022-11-28T03:00:53;101208.19;;;2.24;100.00
50349;BME280;36250;48.740;22.174;2022-11-28T03:03:34;101205.50;;;2.26;100.00
50349;BME280;36250;48.740;22.174;2022-11-28T03:12:09;101200.47;;;2.23;100.00
50349;BME280;36250;48.740;22.174;2022-11-28T03:14:52;101199.53;;;2.24;100.00
50349;BME280;36250;48.740;22.174;2022-11-28T03:22:33;101197.41;;;2.29;100.00
50349;BME280;36250;48.740;22.174;2022-11-28T03:25:22;101191.16;;;2.31;100.00
50349;BME280;36250;48.740;22.174;2022-11-28T03:27:54;101196.38;;;2.31;100.00
50349;BME280;36250;48.740;22.174;2022-11-28T03:30:31;101198.16;;;2.31;100.00
50349;BME280;36250;48.740;22.174;2022-11-28T03:32:59;101194.72;;;2.30;100.00
50349;BME280;36250;48.740;22.174;2022-11-28T03:35:30;101193.13;;;2.28;100.00
50349;BME280;36250;48.740;22.174;2022-11-28T03:38:01;101197.41;;;2.29;100.00
50349;BME280;36250;48.740;22.174;2022-11-28T03:40:35;101192.31;;;2.27;100.00
50349;BME280;36250;48.740;22.174;2022-11-28T03:43:04;101191.59;;;2.25;100.00
50349;BME280;36250;48.740;22.174;2022-11-28T03:45:37;101188.22;;;2.23;100.00
50349;BME280;36250;48.740;22.174;2022-11-28T03:48:09;101188.22;;;2.23;100.00
50349;BME280;36250;48.740;22.174;2022-11-28T03:51:01;101187.50;;;2.21;100.00
50349;BME280;36250;48.740;22.174;2022-11-28T03:53:34;101184.91;;;2.21;100.00
50349;BME280;36250;48.740;22.174;2022-11-28T03:58:59;101174.78;;;2.16;100.00
50349;BME280;36250;48.740;22.174;2022-11-28T04:06:38;101162.78;;;2.14;100.00
50349;BME280;36250;48.740;22.174;2022-11-28T04:09:17;101165.38;;;2.14;100.00
50349;BME280;36250;48.740;22.174;2022-11-28T04:11:50;101167.06;;;2.15;100.00
50349;BME280;36250;48.740;22.174;2022-11-28T04:14:18;101166.81;;;2.18;100.00
50349;BME280;36250;48.740;22.174;2022-11-28T04:16:52;101177.06;;;2.21;100.00
50349;BME280;36250;48.740;22.174;2022-11-28T04:19:30;101173.41;;;2.24;100.00
50349;BME280;36250;48.740;22.174;2022-11-28T04:22:02;101168.25;;;2.22;100.00
50349;BME280;36250;48.740;22.174;2022-11-28T04:24:33;101169.13;;;2.23;100.00
50349;BME280;36250;48.740;22.174;2022-11-28T04:27:04;101172.34;;;2.26;100.00
50349;BME280;36250;48.740;22.174;2022-11-28T04:29:34;101172.53;;;2.23;100.00
50349;BME280;36250;48.740;22.174;2022-11-28T04:32:02;101167.66;;;2.19;100.00
50349;BME280;36250;48.740;22.174;2022-11-28T04:34:31;101165.38;;;2.14;100.00
50349;BME280;36250;48.740;22.174;2022-11-28T04:36:59;101170.84;;;2.11;100.00
50349;BME280;36250;48.740;22.174;2022-11-28T04:39:27;101171.56;;;2.13;100.00
50349;BME280;36250;48.740;22.174;2022-11-28T04:41:59;101176.91;;;2.11;100.00
50349;BME280;36250;48.740;22.174;2022-11-28T04:44:37;101177.13;;;2.08;100.00
50349;BME280;36250;48.740;22.174;2022-11-28T04:47:06;101176.19;;;2.09;100.00
50349;BME280;36250;48.740;22.174;2022-11-28T04:49:31;101175.47;;;2.07;100.00
50349;BME280;36250;48.740;22.174;2022-11-28T04:52:28;101172.44;;;2.00;100.00
50349;BME280;36250;48.740;22.174;2022-11-28T04:57:42;101174.22;;;2.00;100.00
50349;BME280;36250;48.740;22.174;2022-11-28T05:00:12;101179.22;;;2.03;100.00
50349;BME280;36250;48.740;22.174;2022-11-28T05:02:39;101177.91;;;1.97;100.00
50349;BME280;36250;48.740;22.174;2022-11-28T05:05:09;101177.91;;;1.97;100.00
50349;BME280;36250;48.740;22.174;2022-11-28T05:07:35;101173.50;;;1.98;100.00
50349;BME280;36250;48.740;22.174;2022-11-28T05:10:00;101177.06;;;1.97;100.00
50349;BME280;36250;48.740;22.174;2022-11-28T05:12:26;101173.28;;;2.01;100.00
50349;BME280;36250;48.740;22.174;2022-11-28T05:14:51;101172.44;;;2.00;100.00
50349;BME280;36250;48.740;22.174;2022-11-28T05:17:16;101175.88;;;2.01;100.00
50349;BME280;36250;48.740;22.174;2022-11-28T05:19:42;101169.63;;;2.03;100.00
50349;BME280;36250;48.740;22.174;2022-11-28T05:22:07;101170.78;;;1.99;100.00
50349;BME280;36250;48.740;22.174;2022-11-28T05:24:32;101176.47;;;1.93;100.00
50349;BME280;36250;48.740;22.174;2022-11-28T05:26:57;101173.34;;;1.88;100.00
50349;BME280;36250;48.740;22.174;2022-11-28T05:29:23;101168.84;;;1.90;100.00
50349;BME280;36250;48.740;22.174;2022-11-28T05:31:49;101167.91;;;1.91;100.00
50349;BME280;36250;48.740;22.174;2022-11-28T05:34:14;101171.72;;;1.98;100.00
50349;BME280;36250;48.740;22.174;2022-11-28T05:36:40;101174.13;;;2.01;100.00
50349;BME280;36250;48.740;22.174;2022-11-28T05:39:05;101176.84;;;2.00;100.00
50349;BME280;36250;48.740;22.174;2022-11-28T05:41:31;101175.59;;;1.93;100.00
50349;BME280;36250;48.740;22.174;2022-11-28T05:43:58;101180.13;;;1.91;100.00
50349;BME280;36250;48.740;22.174;2022-11-28T05:46:24;101178.22;;;1.93;100.00
50349;BME280;36250;48.740;22.174;2022-11-28T05:48:50;101178.84;;;1.96;100.00
50349;BME280;36250;48.740;22.174;2022-11-28T05:51:16;101177.78;;;1.99;100.00
50349;BME280;36250;48.740;22.174;2022-11-28T05:53:41;101172.31;;;2.02;100.00
50349;BME280;36250;48.740;22.174;2022-11-28T05:56:14;101170.47;;;2.04;100.00
50349;BME280;36250;48.740;22.174;2022-11-28T05:58:40;101172.94;;;2.06;100.00
50349;BME280;36250;48.740;22.174;2022-11-28T06:01:13;101166.28;;;2.01;100.00
50349;BME280;36250;48.740;22.174;2022-11-28T06:03:40;101168.91;;;2.01;100.00
50349;BME280;36250;48.740;22.174;2022-11-28T06:06:20;101164.63;;;2.00;100.00
50349;BME280;36250;48.740;22.174;2022-11-28T06:08:47;101165.66;;;1.98;100.00
50349;BME280;36250;48.740;22.174;2022-11-28T06:11:14;101160.34;;;1.99;100.00
50349;BME280;36250;48.740;22.174;2022-11-28T06:13:41;101162.72;;;2.02;100.00
50349;BME280;36250;48.740;22.174;2022-11-28T06:16:12;101156.56;;;2.03;100.00
50349;BME280;36250;48.740;22.174;2022-11-28T06:18:38;101151.00;;;2.08;100.00
50349;BME280;36250;48.740;22.174;2022-11-28T06:21:05;101158.50;;;2.13;100.00
50349;BME280;36250;48.740;22.174;2022-11-28T06:23:31;101160.66;;;2.19;100.00
50349;BME280;36250;48.740;22.174;2022-11-28T06:25:56;101162.09;;;2.23;100.00
50349;BME280;36250;48.740;22.174;2022-11-28T06:28:22;101159.44;;;2.12;100.00
50349;BME280;36250;48.740;22.174;2022-11-28T06:30:47;101169.66;;;1.91;100.00
50349;BME280;36250;48.740;22.174;2022-11-28T06:33:12;101168.16;;;1.75;100.00
50349;BME280;36250;48.740;22.174;2022-11-28T06:35:38;101170.25;;;1.70;100.00
50349;BME280;36250;48.740;22.174;2022-11-28T06:38:03;101160.41;;;1.73;100.00
50349;BME280;36250;48.740;22.174;2022-11-28T06:40:28;101162.25;;;1.84;100.00
50349;BME280;36250;48.740;22.174;2022-11-28T06:42:53;101169.44;;;1.94;100.00
50349;BME280;36250;48.740;22.174;2022-11-28T06:45:19;101158.53;;;2.00;100.00
50349;BME280;36250;48.740;22.174;2022-11-28T06:47:44;101165.97;;;2.06;100.00
50349;BME280;36250;48.740;22.174;2022-11-28T06:50:09;101165.84;;;2.08;100.00
50349;BME280;36250;48.740;22.174;2022-11-28T06:52:35;101171.28;;;2.05;100.00
50349;BME280;36250;48.740;22.174;2022-11-28T06:55:00;101168.63;;;1.93;100.00
50349;BME280;36250;48.740;22.174;2022-11-28T06:57:26;101170.09;;;1.84;100.00
50349;BME280;36250;48.740;22.174;2022-11-28T06:59:52;101165.91;;;1.82;100.00
50349;BME280;36250;48.740;22.174;2022-11-28T07:02:17;101164.66;;;1.87;100.00
50349;BME280;36250;48.740;22.174;2022-11-28T07:04:42;101168.84;;;1.90;100.00
50349;BME280;36250;48.740;22.174;2022-11-28T07:07:08;101157.94;;;1.96;100.00
50349;BME280;36250;48.740;22.174;2022-11-28T07:09:33;101161.69;;;2.05;100.00
50349;BME280;36250;48.740;22.174;2022-11-28T07:11:58;101160.06;;;2.15;100.00
50349;BME280;36250;48.740;22.174;2022-11-28T07:14:24;101155.31;;;2.21;100.00
50349;BME280;36250;48.740;22.174;2022-11-28T07:16:49;101150.69;;;2.24;100.00
50349;BME280;36250;48.740;22.174;2022-11-28T07:19:15;101154.06;;;2.26;100.00
50349;BME280;36250;48.740;22.174;2022-11-28T07:21:40;101153.81;;;2.29;100.00
50349;BME280;36250;48.740;22.174;2022-11-28T07:24:06;101150.13;;;2.32;100.00
50349;BME280;36250;48.740;22.174;2022-11-28T07:26:31;101148.22;;;2.34;100.00
50349;BME280;36250;48.740;22.174;2022-11-28T07:28:57;101148.84;;;2.38;100.00
50349;BME280;36250;48.740;22.174;2022-11-28T07:31:24;101158.59;;;2.36;100.00
50349;BME280;36250;48.740;22.174;2022-11-28T07:33:51;101154.81;;;2.40;100.00
50349;BME280;36250;48.740;22.174;2022-11-28T07:38:47;101156.72;;;2.49;100.00
50349;BME280;36250;48.740;22.174;2022-11-28T07:41:13;101155.56;;;2.53;100.00
50349;BME280;36250;48.740;22.174;2022-11-28T07:43:41;101150.56;;;2.61;100.00
50349;BME280;36250;48.740;22.174;2022-11-28T07:46:08;101149.19;;;2.69;100.00
50349;BME280;36250;48.740;22.174;2022-11-28T07:48:34;101154.91;;;2.74;100.00
50349;BME280;36250;48.740;22.174;2022-11-28T07:51:05;101155.88;;;2.84;100.00
50349;BME280;36250;48.740;22.174;2022-11-28T07:53:30;101154.91;;;2.85;100.00
50349;BME280;36250;48.740;22.174;2022-11-28T07:56:00;101154.44;;;2.80;100.00
50349;BME280;36250;48.740;22.174;2022-11-28T07:58:25;101155.16;;;2.82;100.00
50349;BME280;36250;48.740;22.174;2022-11-28T08:00:50;101154.91;;;2.85;100.00
50349;BME280;36250;48.740;22.174;2022-11-28T08:03:16;101156.34;;;2.89;100.00
50349;BME280;36250;48.740;22.174;2022-11-28T08:05:41;101150.63;;;2.96;100.00
50349;BME280;36250;48.740;22.174;2022-11-28T08:08:13;101153.97;;;2.98;100.00
50349;BME280;36250;48.740;22.174;2022-11-28T08:10:38;101160.06;;;2.98;100.00
50349;BME280;36250;48.740;22.174;2022-11-28T08:13:04;101162.53;;;3.00;100.00
50349;BME280;36250;48.740;22.174;2022-11-28T08:15:29;101158.63;;;3.06;100.00
50349;BME280;36250;48.740;22.174;2022-11-28T08:17:56;101169.00;;;3.07;100.00
50349;BME280;36250;48.740;22.174;2022-11-28T08:20:21;101171.38;;;3.10;100.00
50349;BME280;36250;48.740;22.174;2022-11-28T08:22:46;101164.34;;;3.11;100.00
50349;BME280;36250;48.740;22.174;2022-11-28T08:25:12;101171.72;;;3.17;100.00
50349;BME280;36250;48.740;22.174;2022-11-28T08:27:37;101170.66;;;3.19;100.00
50349;BME280;36250;48.740;22.174;2022-11-28T08:30:03;101170.41;;;3.23;100.00
50349;BME280;36250;48.740;22.174;2022-11-28T08:32:28;101165.66;;;3.16;100.00
50349;BME280;36250;48.740;22.174;2022-11-28T08:34:54;101167.81;;;3.11;100.00
50349;BME280;36250;48.740;22.174;2022-11-28T08:37:20;101170.19;;;3.14;100.00
50349;BME280;36250;48.740;22.174;2022-11-28T08:39:45;101171.47;;;3.20;100.00
50349;BME280;36250;48.740;22.174;2022-11-28T08:42:10;101169.69;;;3.21;100.00
50349;BME280;36250;48.740;22.174;2022-11-28T08:44:36;101163.75;;;3.18;100.00
50349;BME280;36250;48.740;22.174;2022-11-28T08:47:01;101167.91;;;3.21;100.00
50349;BME280;36250;48.740;22.174;2022-11-28T08:49:26;101162.66;;;3.21;100.00
50349;BME280;36250;48.740;22.174;2022-11-28T08:51:51;101158.84;;;3.25;100.00
50349;BME280;36250;48.740;22.174;2022-11-28T08:54:17;101160.31;;;3.29;100.00
50349;BME280;36250;48.740;22.174;2022-11-28T08:56:42;101159.34;;;3.30;100.00
50349;BME280;36250;48.740;22.174;2022-11-28T08:59:09;101155.66;;;3.33;100.00
50349;BME280;36250;48.740;22.174;2022-11-28T09:01:34;101146.84;;;3.34;100.00
50349;BME280;36250;48.740;22.174;2022-11-28T09:04:00;101149.81;;;3.41;100.00
50349;BME280;36250;48.740;22.174;2022-11-28T09:06:25;101146.25;;;3.42;100.00
50349;BME280;36250;48.740;22.174;2022-11-28T09:08:51;101148.63;;;3.45;100.00
50349;BME280;36250;48.740;22.174;2022-11-28T09:11:18;101145.66;;;3.50;100.00
50349;BME280;36250;48.740;22.174;2022-11-28T09:13:44;101149.31;;;3.58;100.00
50349;BME280;36250;48.740;22.174;2022-11-28T09:16:10;101139.91;;;3.67;100.00
50349;BME280;36250;48.740;22.174;2022-11-28T09:18:35;101143.69;;;3.74;100.00
50349;BME280;36250;48.740;22.174;2022-11-28T09:21:06;101139.28;;;3.75;100.00
50349;BME280;36250;48.740;22.174;2022-11-28T09:23:36;101136.75;;;3.85;100.00
50349;BME280;36250;48.740;22.174;2022-11-28T09:26:18;101135.78;;;3.86;100.00
50349;BME280;36250;48.740;22.174;2022-11-28T09:28:43;101134.25;;;3.83;100.00
50349;BME280;36250;48.740;22.174;2022-11-28T09:31:09;101131.19;;;3.78;100.00
50349;BME280;36250;48.740;22.174;2022-11-28T09:33:36;101132.13;;;3.77;100.00
50349;BME280;36250;48.740;22.174;2022-11-28T09:36:13;101129.84;;;3.84;100.00
50349;BME280;36250;48.740;22.174;2022-11-28T09:38:39;101130.47;;;3.76;100.00
50349;BME280;36250;48.740;22.174;2022-11-28T09:46:49;101121.97;;;3.84;100.00
50349;BME280;36250;48.740;22.174;2022-11-28T09:49:31;101117.09;;;3.90;100.00
50349;BME280;36250;48.740;22.174;2022-11-28T09:52:07;101119.78;;;4.00;100.00
50349;BME280;36250;48.740;22.174;2022-11-28T09:54:51;101113.19;;;4.06;100.00
50349;BME280;36250;48.740;22.174;2022-11-28T09:57:31;101112.25;;;4.07;100.00
50349;BME280;36250;48.740;22.174;2022-11-28T09:59:58;101105.53;;;3.93;100.00
50349;BME280;36250;48.740;22.174;2022-11-28T10:02:47;101102.91;;;3.93;100.00
50349;BME280;36250;48.740;22.174;2022-11-28T10:05:24;101107.06;;;3.96;100.00
50349;BME280;36250;48.740;22.174;2022-11-28T10:08:20;101097.81;;;4.13;100.00
50349;BME280;36250;48.740;22.174;2022-11-28T10:11:00;101098.34;;;4.28;100.00
50349;BME280;36250;48.740;22.174;2022-11-28T10:16:34;101083.81;;;4.45;100.00
50349;BME280;36250;48.740;22.174;2022-11-28T10:19:10;101091.88;;;4.53;100.00
50349;BME280;36250;48.740;22.174;2022-11-28T10:24:08;101075.50;;;4.40;100.00
50349;BME280;36250;48.740;22.174;2022-11-28T10:26:37;101078.06;;;4.30;100.00
50349;BME280;36250;48.740;22.174;2022-11-28T10:29:36;101080.34;;;4.44;100.00
50349;BME280;36250;48.740;22.174;2022-11-28T10:32:05;101070.75;;;4.55;100.00
50349;BME280;36250;48.740;22.174;2022-11-28T10:34:42;101072.53;;;4.54;100.00
50349;BME280;36250;48.740;22.174;2022-11-28T10:37:23;101068.25;;;4.53;100.00
50349;BME280;36250;48.740;22.174;2022-11-28T10:39:49;101072.19;;;4.69;100.00
50349;BME280;36250;48.740;22.174;2022-11-28T10:47:57;101065.97;;;5.01;100.00
50349;BME280;36250;48.740;22.174;2022-11-28T10:50:36;101054.94;;;5.07;100.00
50349;BME280;36250;48.740;22.174;2022-11-28T10:53:15;101062.03;;;5.16;100.00
50349;BME280;36250;48.740;22.174;2022-11-28T10:56:00;101056.50;;;5.19;100.00
50349;BME280;36250;48.740;22.174;2022-11-28T10:58:36;101054.59;;;5.21;100.00
50349;BME280;36250;48.740;22.174;2022-11-28T11:01:04;101044.06;;;5.21;100.00
50349;BME280;36250;48.740;22.174;2022-11-28T11:03:31;101046.00;;;5.19;100.00
50349;BME280;36250;48.740;22.174;2022-11-28T11:05:59;101051.38;;;5.18;100.00
50349;BME280;36250;48.740;22.174;2022-11-28T11:08:27;101045.16;;;5.19;100.00
50349;BME280;36250;48.740;22.174;2022-11-28T11:11:03;101041.72;;;5.18;100.00
50349;BME280;36250;48.740;22.174;2022-11-28T11:13:33;101041.72;;;5.18;100.00
50349;BME280;36250;48.740;22.174;2022-11-28T11:16:05;101036.47;;;5.18;100.00
50349;BME280;36250;48.740;22.174;2022-11-28T11:18:34;101039.09;;;5.18;100.00
50349;BME280;36250;48.740;22.174;2022-11-28T11:21:18;101043.06;;;5.13;100.00
50349;BME280;36250;48.740;22.174;2022-11-28T11:23:45;101039.91;;;5.19;100.00
50349;BME280;36250;48.740;22.174;2022-11-28T11:26:21;101031.78;;;5.32;100.00
50349;BME280;36250;48.740;22.174;2022-11-28T11:28:48;101028.22;;;5.43;100.00
50349;BME280;36250;48.740;22.174;2022-11-28T11:31:29;101030.44;;;5.57;100.00
50349;BME280;36250;48.740;22.174;2022-11-28T11:34:06;101027.53;;;5.80;100.00
50349;BME280;36250;48.740;22.174;2022-11-28T11:36:37;101022.69;;;5.75;100.00
50349;BME280;36250;48.740;22.174;2022-11-28T11:41:45;101022.53;;;5.97;100.00
50349;BME280;36250;48.740;22.174;2022-11-28T11:46:52;101018.25;;;5.86;100.00
50349;BME280;36250;48.740;22.174;2022-11-28T11:49:33;101012.16;;;5.95;100.00
50349;BME280;36250;48.740;22.174;2022-11-28T11:57:24;101017.28;;;6.16;100.00
50349;BME280;36250;48.740;22.174;2022-11-28T11:59:55;101011.88;;;6.18;100.00
50349;BME280;36250;48.740;22.174;2022-11-28T12:05:23;101008.56;;;5.86;100.00
50349;BME280;36250;48.740;22.174;2022-11-28T12:07:56;101007.88;;;5.94;100.00
50349;BME280;36250;48.740;22.174;2022-11-28T12:10:26;101011.34;;;6.14;100.00
50349;BME280;36250;48.740;22.174;2022-11-28T12:12:52;100998.00;;;6.35;100.00
50349;BME280;36250;48.740;22.174;2022-11-28T12:15:33;101002.63;;;6.51;100.00
50349;BME280;36250;48.740;22.174;2022-11-28T12:23:43;100991.47;;;7.23;100.00
50349;BME280;36250;48.740;22.174;2022-11-28T12:29:24;100975.69;;;8.39;99.59
50349;BME280;36250;48.740;22.174;2022-11-28T12:32:13;100973.41;;;8.79;93.42
50349;BME280;36250;48.740;22.174;2022-11-28T12:34:50;100969.63;;;8.47;96.03
50349;BME280;36250;48.740;22.174;2022-11-28T12:40:02;100954.81;;;13.78;69.92
50349;BME280;36250;48.740;22.174;2022-11-28T12:42:50;100948.50;;;14.63;62.34
50349;BME280;36250;48.740;22.174;2022-11-28T12:45:41;100944.34;;;15.02;58.73
50349;BME280;36250;48.740;22.174;2022-11-28T12:48:28;100952.78;;;12.93;66.78
50349;BME280;36250;48.740;22.174;2022-11-28T12:54:30;100937.09;;;14.76;61.76
50349;BME280;36250;48.740;22.174;2022-11-28T12:57:06;100927.13;;;17.80;49.52
50349;BME280;36250;48.740;22.174;2022-11-28T12:59:46;100923.44;;;19.52;42.19
50349;BME280;36250;48.740;22.174;2022-11-28T13:07:37;100909.31;;;20.46;37.42
50349;BME280;36250;48.740;22.174;2022-11-28T13:10:22;100901.72;;;21.18;34.92
50349;BME280;36250;48.740;22.174;2022-11-28T13:13:13;100903.28;;;21.13;34.88
50349;BME280;36250;48.740;22.174;2022-11-28T13:24:01;100904.88;;;20.39;35.58
50349;BME280;36250;48.740;22.174;2022-11-28T13:26:43;100898.44;;;19.76;35.01
50349;BME280;36250;48.740;22.174;2022-11-28T13:29:35;100913.16;;;18.34;38.24
50349;BME280;36250;48.740;22.174;2022-11-28T13:32:24;100905.84;;;17.85;39.04
50349;BME280;36250;48.740;22.174;2022-11-28T13:34:54;100915.19;;;16.15;41.90
50349;BME280;36250;48.740;22.174;2022-11-28T13:37:40;100929.16;;;14.05;47.74
50349;BME280;36250;48.740;22.174;2022-11-28T13:40:28;100926.09;;;14.99;46.66
50349;BME280;36250;48.740;22.174;2022-11-28T13:45:52;100918.31;;;15.45;44.85
50349;BME280;36250;48.740;22.174;2022-11-28T13:53:43;100924.56;;;12.25;55.29
50349;BME280;36250;48.740;22.174;2022-11-28T14:01:42;100930.41;;;9.53;68.31
50349;BME280;36250;48.740;22.174;2022-11-28T14:04:09;100938.88;;;8.64;73.31
50349;BME280;36250;48.740;22.174;2022-11-28T14:06:47;100937.81;;;7.95;79.08
50349;BME280;36250;48.740;22.174;2022-11-28T14:14:54;100937.91;;;6.31;93.71
50349;BME280;36250;48.740;22.174;2022-11-28T14:17:42;100947.09;;;6.07;97.36
50349;BME280;36250;48.740;22.174;2022-11-28T14:23:30;100956.44;;;5.62;100.00
50349;BME280;36250;48.740;22.174;2022-11-28T14:26:11;100943.16;;;5.34;100.00
50349;BME280;36250;48.740;22.174;2022-11-28T14:28:42;100956.97;;;5.16;100.00
50349;BME280;36250;48.740;22.174;2022-11-28T14:31:34;100947.41;;;4.96;100.00
50349;BME280;36250;48.740;22.174;2022-11-28T14:34:06;100944.75;;;4.76;100.00
50349;BME280;36250;48.740;22.174;2022-11-28T14:36:38;100953.41;;;4.67;100.00
50349;BME280;36250;48.740;22.174;2022-11-28T14:44:56;100959.44;;;4.26;100.00
50349;BME280;36250;48.740;22.174;2022-11-28T14:52:40;100967.59;;;3.81;100.00
50349;BME280;36250;48.740;22.174;2022-11-28T14:57:32;100971.63;;;3.63;100.00
50349;BME280;36250;48.740;22.174;2022-11-28T15:00:16;100976.34;;;3.48;100.00
50349;BME280;36250;48.740;22.174;2022-11-28T15:13:39;100975.78;;;2.78;100.00
50349;BME280;36250;48.740;22.174;2022-11-28T15:16:12;100983.28;;;2.71;100.00
50349;BME280;36250;48.740;22.174;2022-11-28T15:18:45;100984.22;;;2.70;100.00
50349;BME280;36250;48.740;22.174;2022-11-28T15:21:14;100991.50;;;2.67;100.00